sensor_id;sensor_type;location;lat;lon;timestamp;P1;durP1;ratioP1;P2;durP2;ratioP2
5555;SDS011;2801;50.972;7.856;2024-01-30T00:01:09;26.60;;;15.20;;
5555;SDS011;2801;50.972;7.856;2024-01-30T00:03:37;26.70;;;13.77;;
5555;SDS011;2801;50.972;7.856;2024-01-30T00:06:04;27.27;;;14.07;;
5555;SDS011;2801;50.972;7.856;2024-01-30T00:08:31;28.47;;;14.40;;
5555;SDS011;2801;50.972;7.856;2024-01-30T00:10:58;30.10;;;14.77;;
5555;SDS011;2801;50.972;7.856;2024-01-30T00:13:25;26.27;;;15.13;;
5555;SDS011;2801;50.972;7.856;2024-01-30T00:15:52;27.03;;;14.37;;
5555;SDS011;2801;50.972;7.856;2024-01-30T00:18:20;29.87;;;14.70;;
5555;SDS011;2801;50.972;7.856;2024-01-30T00:20:47;27.83;;;14.63;;
5555;SDS011;2801;50.972;7.856;2024-01-30T00:23:14;30.67;;;14.40;;
5555;SDS011;2801;50.972;7.856;2024-01-30T00:25:42;28.17;;;14.83;;
5555;SDS011;2801;50.972;7.856;2024-01-30T00:28:09;29.87;;;14.17;;
5555;SDS011;2801;50.972;7.856;2024-01-30T00:30:36;24.67;;;14.10;;
5555;SDS011;2801;50.972;7.856;2024-01-30T00:33:03;28.33;;;15.90;;
5555;SDS011;2801;50.972;7.856;2024-01-30T00:35:30;29.50;;;14.40;;
5555;SDS011;2801;50.972;7.856;2024-01-30T00:37:57;27.03;;;14.70;;
5555;SDS011;2801;50.972;7.856;2024-01-30T00:40:24;30.37;;;14.80;;
5555;SDS011;2801;50.972;7.856;2024-01-30T00:42:52;32.20;;;15.43;;
5555;SDS011;2801;50.972;7.856;2024-01-30T00:45:19;28.40;;;14.30;;
5555;SDS011;2801;50.972;7.856;2024-01-30T00:47:46;27.30;;;13.70;;
5555;SDS011;2801;50.972;7.856;2024-01-30T00:50:13;25.67;;;13.60;;
5555;SDS011;2801;50.972;7.856;2024-01-30T00:52:40;24.23;;;14.13;;
5555;SDS011;2801;50.972;7.856;2024-01-30T00:55:11;24.83;;;13.00;;
5555;SDS011;2801;50.972;7.856;2024-01-30T00:57:38;24.10;;;13.67;;
5555;SDS011;2801;50.972;7.856;2024-01-30T01:00:07;29.87;;;14.60;;
5555;SDS011;2801;50.972;7.856;2024-01-30T01:02:35;22.87;;;12.67;;
5555;SDS011;2801;50.972;7.856;2024-01-30T01:05:03;28.83;;;13.73;;
5555;SDS011;2801;50.972;7.856;2024-01-30T01:07:31;26.33;;;14.07;;
5555;SDS011;2801;50.972;7.856;2024-01-30T01:09:58;31.00;;;14.03;;
5555;SDS011;2801;50.972;7.856;2024-01-30T01:12:25;34.03;;;14.53;;
5555;SDS011;2801;50.972;7.856;2024-01-30T01:14:52;30.97;;;13.53;;
5555;SDS011;2801;50.972;7.856;2024-01-30T01:17:19;26.60;;;14.33;;
5555;SDS011;2801;50.972;7.856;2024-01-30T01:19:46;28.90;;;14.07;;
5555;SDS011;2801;50.972;7.856;2024-01-30T01:22:13;25.37;;;13.53;;
5555;SDS011;2801;50.972;7.856;2024-01-30T01:24:41;25.63;;;13.43;;
5555;SDS011;2801;50.972;7.856;2024-01-30T01:27:08;25.77;;;13.57;;
5555;SDS011;2801;50.972;7.856;2024-01-30T01:29:35;23.97;;;14.13;;
5555;SDS011;2801;50.972;7.856;2024-01-30T01:32:01;31.97;;;14.27;;
5555;SDS011;2801;50.972;7.856;2024-01-30T01:34:29;28.83;;;13.10;;
5555;SDS011;2801;50.972;7.856;2024-01-30T01:36:56;23.77;;;12.90;;
5555;SDS011;2801;50.972;7.856;2024-01-30T01:39:23;23.43;;;12.00;;
5555;SDS011;2801;50.972;7.856;2024-01-30T01:41:51;27.17;;;13.23;;
5555;SDS011;2801;50.972;7.856;2024-01-30T01:44:18;27.40;;;14.23;;
5555;SDS011;2801;50.972;7.856;2024-01-30T01:46:45;27.47;;;14.60;;
5555;SDS011;2801;50.972;7.856;2024-01-30T01:49:13;27.00;;;13.77;;
5555;SDS011;2801;50.972;7.856;2024-01-30T01:51:41;32.50;;;16.13;;
5555;SDS011;2801;50.972;7.856;2024-01-30T01:54:11;28.27;;;14.23;;
5555;SDS011;2801;50.972;7.856;2024-01-30T01:56:40;27.07;;;13.73;;
5555;SDS011;2801;50.972;7.856;2024-01-30T01:59:08;27.70;;;13.23;;
5555;SDS011;2801;50.972;7.856;2024-01-30T02:01:39;29.93;;;14.60;;
5555;SDS011;2801;50.972;7.856;2024-01-30T02:04:07;27.30;;;14.07;;
5555;SDS011;2801;50.972;7.856;2024-01-30T02:06:35;29.27;;;13.77;;
5555;SDS011;2801;50.972;7.856;2024-01-30T02:09:02;28.03;;;13.70;;
5555;SDS011;2801;50.972;7.856;2024-01-30T02:11:30;30.33;;;13.93;;
5555;SDS011;2801;50.972;7.856;2024-01-30T02:14:02;26.50;;;14.13;;
5555;SDS011;2801;50.972;7.856;2024-01-30T02:16:31;30.53;;;14.03;;
5555;SDS011;2801;50.972;7.856;2024-01-30T02:18:58;26.07;;;13.30;;
5555;SDS011;2801;50.972;7.856;2024-01-30T02:21:25;27.57;;;14.17;;
5555;SDS011;2801;50.972;7.856;2024-01-30T02:23:53;30.13;;;14.20;;
5555;SDS011;2801;50.972;7.856;2024-01-30T02:26:22;27.13;;;13.83;;
5555;SDS011;2801;50.972;7.856;2024-01-30T02:28:49;24.03;;;13.80;;
5555;SDS011;2801;50.972;7.856;2024-01-30T02:31:16;26.83;;;13.20;;
5555;SDS011;2801;50.972;7.856;2024-01-30T02:33:44;24.67;;;13.37;;
5555;SDS011;2801;50.972;7.856;2024-01-30T02:36:11;23.87;;;13.50;;
5555;SDS011;2801;50.972;7.856;2024-01-30T02:38:38;25.47;;;13.50;;
5555;SDS011;2801;50.972;7.856;2024-01-30T02:41:05;22.47;;;12.60;;
5555;SDS011;2801;50.972;7.856;2024-01-30T02:43:32;26.67;;;13.53;;
5555;SDS011;2801;50.972;7.856;2024-01-30T02:45:59;28.03;;;13.73;;
5555;SDS011;2801;50.972;7.856;2024-01-30T02:48:27;29.73;;;13.37;;
5555;SDS011;2801;50.972;7.856;2024-01-30T02:50:54;25.23;;;13.77;;
5555;SDS011;2801;50.972;7.856;2024-01-30T02:53:21;27.80;;;13.67;;
5555;SDS011;2801;50.972;7.856;2024-01-30T02:55:48;26.80;;;12.57;;
5555;SDS011;2801;50.972;7.856;2024-01-30T02:58:16;25.20;;;13.77;;
5555;SDS011;2801;50.972;7.856;2024-01-30T03:00:43;24.27;;;12.87;;
5555;SDS011;2801;50.972;7.856;2024-01-30T03:03:11;25.00;;;12.83;;
5555;SDS011;2801;50.972;7.856;2024-01-30T03:05:38;28.13;;;13.27;;
5555;SDS011;2801;50.972;7.856;2024-01-30T03:08:05;23.77;;;13.33;;
5555;SDS011;2801;50.972;7.856;2024-01-30T03:10:32;25.83;;;13.50;;
5555;SDS011;2801;50.972;7.856;2024-01-30T03:12:59;24.90;;;12.70;;
5555;SDS011;2801;50.972;7.856;2024-01-30T03:15:26;22.83;;;11.87;;
5555;SDS011;2801;50.972;7.856;2024-01-30T03:17:53;22.03;;;12.40;;
5555;SDS011;2801;50.972;7.856;2024-01-30T03:20:21;24.60;;;13.00;;
5555;SDS011;2801;50.972;7.856;2024-01-30T03:22:48;25.93;;;13.40;;
5555;SDS011;2801;50.972;7.856;2024-01-30T03:25:15;26.10;;;13.17;;
5555;SDS011;2801;50.972;7.856;2024-01-30T03:27:42;31.03;;;12.83;;
5555;SDS011;2801;50.972;7.856;2024-01-30T03:30:09;25.73;;;12.57;;
5555;SDS011;2801;50.972;7.856;2024-01-30T03:32:36;26.17;;;13.50;;
5555;SDS011;2801;50.972;7.856;2024-01-30T03:35:03;29.43;;;13.50;;
5555;SDS011;2801;50.972;7.856;2024-01-30T03:37:31;24.93;;;12.43;;
5555;SDS011;2801;50.972;7.856;2024-01-30T03:39:58;26.17;;;12.40;;
5555;SDS011;2801;50.972;7.856;2024-01-30T03:42:26;23.33;;;12.60;;
5555;SDS011;2801;50.972;7.856;2024-01-30T03:44:53;29.70;;;13.40;;
5555;SDS011;2801;50.972;7.856;2024-01-30T03:47:21;26.23;;;12.87;;
5555;SDS011;2801;50.972;7.856;2024-01-30T03:49:48;27.10;;;12.47;;
5555;SDS011;2801;50.972;7.856;2024-01-30T03:52:15;25.33;;;12.87;;
5555;SDS011;2801;50.972;7.856;2024-01-30T03:54:43;27.20;;;13.13;;
5555;SDS011;2801;50.972;7.856;2024-01-30T03:57:10;27.47;;;13.27;;
5555;SDS011;2801;50.972;7.856;2024-01-30T03:59:38;27.30;;;13.33;;
5555;SDS011;2801;50.972;7.856;2024-01-30T04:02:09;28.63;;;13.37;;
5555;SDS011;2801;50.972;7.856;2024-01-30T04:04:38;28.07;;;13.23;;
5555;SDS011;2801;50.972;7.856;2024-01-30T04:07:05;25.73;;;12.40;;
5555;SDS011;2801;50.972;7.856;2024-01-30T04:09:32;25.70;;;12.60;;
5555;SDS011;2801;50.972;7.856;2024-01-30T04:11:59;24.33;;;12.90;;
5555;SDS011;2801;50.972;7.856;2024-01-30T04:14:29;28.90;;;12.70;;
5555;SDS011;2801;50.972;7.856;2024-01-30T04:16:56;28.00;;;12.20;;
5555;SDS011;2801;50.972;7.856;2024-01-30T04:19:23;25.63;;;12.57;;
5555;SDS011;2801;50.972;7.856;2024-01-30T04:21:50;29.40;;;13.23;;
5555;SDS011;2801;50.972;7.856;2024-01-30T04:24:17;29.03;;;12.27;;
5555;SDS011;2801;50.972;7.856;2024-01-30T04:26:44;23.60;;;13.10;;
5555;SDS011;2801;50.972;7.856;2024-01-30T04:29:11;27.50;;;11.93;;
5555;SDS011;2801;50.972;7.856;2024-01-30T04:31:39;24.40;;;11.37;;
5555;SDS011;2801;50.972;7.856;2024-01-30T04:34:05;22.93;;;11.27;;
5555;SDS011;2801;50.972;7.856;2024-01-30T04:36:33;24.77;;;11.57;;
5555;SDS011;2801;50.972;7.856;2024-01-30T04:38:59;21.30;;;11.87;;
5555;SDS011;2801;50.972;7.856;2024-01-30T04:41:27;23.13;;;12.67;;
5555;SDS011;2801;50.972;7.856;2024-01-30T04:43:57;22.60;;;11.70;;
5555;SDS011;2801;50.972;7.856;2024-01-30T04:46:25;30.77;;;12.37;;
5555;SDS011;2801;50.972;7.856;2024-01-30T04:48:52;24.97;;;12.50;;
5555;SDS011;2801;50.972;7.856;2024-01-30T04:51:19;21.53;;;11.00;;
5555;SDS011;2801;50.972;7.856;2024-01-30T04:53:46;27.87;;;11.97;;
5555;SDS011;2801;50.972;7.856;2024-01-30T04:56:13;23.20;;;12.73;;
5555;SDS011;2801;50.972;7.856;2024-01-30T04:58:40;25.53;;;11.87;;
5555;SDS011;2801;50.972;7.856;2024-01-30T05:01:07;28.13;;;13.30;;
5555;SDS011;2801;50.972;7.856;2024-01-30T05:03:34;22.50;;;11.40;;
5555;SDS011;2801;50.972;7.856;2024-01-30T05:06:01;21.47;;;11.40;;
5555;SDS011;2801;50.972;7.856;2024-01-30T05:08:28;52.40;;;12.77;;
5555;SDS011;2801;50.972;7.856;2024-01-30T05:10:55;26.73;;;13.03;;
5555;SDS011;2801;50.972;7.856;2024-01-30T05:13:22;22.43;;;11.57;;
5555;SDS011;2801;50.972;7.856;2024-01-30T05:15:49;24.37;;;11.80;;
5555;SDS011;2801;50.972;7.856;2024-01-30T05:18:16;27.60;;;13.90;;
5555;SDS011;2801;50.972;7.856;2024-01-30T05:20:43;24.17;;;12.03;;
5555;SDS011;2801;50.972;7.856;2024-01-30T05:23:10;26.23;;;13.90;;
5555;SDS011;2801;50.972;7.856;2024-01-30T05:25:37;26.17;;;13.07;;
5555;SDS011;2801;50.972;7.856;2024-01-30T05:28:05;30.20;;;13.50;;
5555;SDS011;2801;50.972;7.856;2024-01-30T05:30:32;21.03;;;12.37;;
5555;SDS011;2801;50.972;7.856;2024-01-30T05:32:59;25.93;;;12.47;;
5555;SDS011;2801;50.972;7.856;2024-01-30T05:35:26;30.97;;;13.53;;
5555;SDS011;2801;50.972;7.856;2024-01-30T05:37:53;37.10;;;13.40;;
5555;SDS011;2801;50.972;7.856;2024-01-30T05:40:21;27.97;;;12.53;;
5555;SDS011;2801;50.972;7.856;2024-01-30T05:42:48;28.33;;;13.10;;
5555;SDS011;2801;50.972;7.856;2024-01-30T05:45:15;23.63;;;11.40;;
5555;SDS011;2801;50.972;7.856;2024-01-30T05:47:42;24.47;;;12.30;;
5555;SDS011;2801;50.972;7.856;2024-01-30T05:50:09;47.77;;;13.07;;
5555;SDS011;2801;50.972;7.856;2024-01-30T05:52:36;25.00;;;13.13;;
5555;SDS011;2801;50.972;7.856;2024-01-30T05:55:04;26.43;;;13.33;;
5555;SDS011;2801;50.972;7.856;2024-01-30T05:57:32;29.43;;;12.97;;
5555;SDS011;2801;50.972;7.856;2024-01-30T05:59:59;24.30;;;12.50;;
5555;SDS011;2801;50.972;7.856;2024-01-30T06:02:26;26.17;;;14.37;;
5555;SDS011;2801;50.972;7.856;2024-01-30T06:04:52;28.07;;;13.60;;
5555;SDS011;2801;50.972;7.856;2024-01-30T06:07:20;28.80;;;14.90;;
5555;SDS011;2801;50.972;7.856;2024-01-30T06:09:48;29.07;;;13.90;;
5555;SDS011;2801;50.972;7.856;2024-01-30T06:12:15;27.63;;;13.40;;
5555;SDS011;2801;50.972;7.856;2024-01-30T06:14:42;19.27;;;11.53;;
5555;SDS011;2801;50.972;7.856;2024-01-30T06:17:12;24.00;;;11.90;;
5555;SDS011;2801;50.972;7.856;2024-01-30T06:19:40;25.20;;;12.00;;
5555;SDS011;2801;50.972;7.856;2024-01-30T06:22:07;20.23;;;11.37;;
5555;SDS011;2801;50.972;7.856;2024-01-30T06:24:34;27.07;;;12.10;;
5555;SDS011;2801;50.972;7.856;2024-01-30T06:27:01;25.77;;;11.90;;
5555;SDS011;2801;50.972;7.856;2024-01-30T06:29:28;26.47;;;12.47;;
5555;SDS011;2801;50.972;7.856;2024-01-30T06:31:56;17.50;;;10.40;;
5555;SDS011;2801;50.972;7.856;2024-01-30T06:34:23;25.50;;;11.60;;
5555;SDS011;2801;50.972;7.856;2024-01-30T06:36:52;23.67;;;11.17;;
5555;SDS011;2801;50.972;7.856;2024-01-30T06:39:19;25.77;;;11.70;;
5555;SDS011;2801;50.972;7.856;2024-01-30T06:41:47;28.60;;;11.27;;
5555;SDS011;2801;50.972;7.856;2024-01-30T06:44:14;24.30;;;11.93;;
5555;SDS011;2801;50.972;7.856;2024-01-30T06:46:41;23.57;;;12.67;;
5555;SDS011;2801;50.972;7.856;2024-01-30T06:49:08;26.27;;;12.97;;
5555;SDS011;2801;50.972;7.856;2024-01-30T06:51:35;27.67;;;13.07;;
5555;SDS011;2801;50.972;7.856;2024-01-30T06:54:02;29.00;;;12.97;;
5555;SDS011;2801;50.972;7.856;2024-01-30T06:56:29;28.67;;;13.40;;
5555;SDS011;2801;50.972;7.856;2024-01-30T06:58:56;32.43;;;14.50;;
5555;SDS011;2801;50.972;7.856;2024-01-30T07:01:27;33.13;;;16.23;;
5555;SDS011;2801;50.972;7.856;2024-01-30T07:03:56;40.27;;;17.83;;
5555;SDS011;2801;50.972;7.856;2024-01-30T07:06:24;39.13;;;18.87;;
5555;SDS011;2801;50.972;7.856;2024-01-30T07:08:51;36.97;;;17.53;;
5555;SDS011;2801;50.972;7.856;2024-01-30T07:11:19;32.47;;;14.90;;
5555;SDS011;2801;50.972;7.856;2024-01-30T07:13:51;35.37;;;16.70;;
5555;SDS011;2801;50.972;7.856;2024-01-30T07:16:18;35.93;;;15.87;;
5555;SDS011;2801;50.972;7.856;2024-01-30T07:18:45;31.17;;;16.40;;
5555;SDS011;2801;50.972;7.856;2024-01-30T07:21:12;33.53;;;16.93;;
5555;SDS011;2801;50.972;7.856;2024-01-30T07:23:39;32.90;;;14.73;;
5555;SDS011;2801;50.972;7.856;2024-01-30T07:26:08;28.43;;;13.73;;
5555;SDS011;2801;50.972;7.856;2024-01-30T07:28:35;39.40;;;17.57;;
5555;SDS011;2801;50.972;7.856;2024-01-30T07:31:03;35.27;;;18.67;;
5555;SDS011;2801;50.972;7.856;2024-01-30T07:33:30;38.13;;;19.93;;
5555;SDS011;2801;50.972;7.856;2024-01-30T07:35:57;36.40;;;18.73;;
5555;SDS011;2801;50.972;7.856;2024-01-30T07:38:24;39.60;;;18.20;;
5555;SDS011;2801;50.972;7.856;2024-01-30T07:40:51;43.40;;;18.57;;
5555;SDS011;2801;50.972;7.856;2024-01-30T07:43:18;42.60;;;19.43;;
5555;SDS011;2801;50.972;7.856;2024-01-30T07:45:46;36.23;;;19.00;;
5555;SDS011;2801;50.972;7.856;2024-01-30T07:48:13;48.87;;;20.13;;
5555;SDS011;2801;50.972;7.856;2024-01-30T07:50:40;34.97;;;19.03;;
5555;SDS011;2801;50.972;7.856;2024-01-30T07:53:08;39.03;;;20.20;;
5555;SDS011;2801;50.972;7.856;2024-01-30T07:55:35;41.23;;;19.57;;
5555;SDS011;2801;50.972;7.856;2024-01-30T07:58:02;38.73;;;19.83;;
5555;SDS011;2801;50.972;7.856;2024-01-30T08:00:31;42.07;;;19.80;;
5555;SDS011;2801;50.972;7.856;2024-01-30T08:02:58;36.63;;;19.23;;
5555;SDS011;2801;50.972;7.856;2024-01-30T08:05:25;37.63;;;18.27;;
5555;SDS011;2801;50.972;7.856;2024-01-30T08:07:53;38.83;;;19.70;;
5555;SDS011;2801;50.972;7.856;2024-01-30T08:10:20;41.63;;;20.13;;
5555;SDS011;2801;50.972;7.856;2024-01-30T08:12:47;34.30;;;17.13;;
5555;SDS011;2801;50.972;7.856;2024-01-30T08:15:14;21.57;;;11.10;;
5555;SDS011;2801;50.972;7.856;2024-01-30T08:17:42;23.60;;;12.27;;
5555;SDS011;2801;50.972;7.856;2024-01-30T08:20:09;22.40;;;12.57;;
5555;SDS011;2801;50.972;7.856;2024-01-30T08:22:39;38.90;;;17.67;;
5555;SDS011;2801;50.972;7.856;2024-01-30T08:25:07;34.40;;;16.07;;
5555;SDS011;2801;50.972;7.856;2024-01-30T08:27:36;32.20;;;15.27;;
5555;SDS011;2801;50.972;7.856;2024-01-30T08:30:08;33.43;;;16.07;;
5555;SDS011;2801;50.972;7.856;2024-01-30T08:32:35;23.97;;;11.53;;
5555;SDS011;2801;50.972;7.856;2024-01-30T08:35:02;19.00;;;10.80;;
5555;SDS011;2801;50.972;7.856;2024-01-30T08:37:30;19.87;;;9.30;;
5555;SDS011;2801;50.972;7.856;2024-01-30T08:39:58;26.17;;;11.50;;
5555;SDS011;2801;50.972;7.856;2024-01-30T08:42:25;21.67;;;11.73;;
5555;SDS011;2801;50.972;7.856;2024-01-30T08:44:52;29.27;;;14.83;;
5555;SDS011;2801;50.972;7.856;2024-01-30T08:47:20;29.80;;;15.53;;
5555;SDS011;2801;50.972;7.856;2024-01-30T08:49:47;22.77;;;13.53;;
5555;SDS011;2801;50.972;7.856;2024-01-30T08:52:15;27.47;;;12.93;;
5555;SDS011;2801;50.972;7.856;2024-01-30T08:54:41;25.23;;;11.93;;
5555;SDS011;2801;50.972;7.856;2024-01-30T08:57:09;18.87;;;10.53;;
5555;SDS011;2801;50.972;7.856;2024-01-30T08:59:36;22.60;;;11.67;;
5555;SDS011;2801;50.972;7.856;2024-01-30T09:02:03;20.27;;;11.67;;
5555;SDS011;2801;50.972;7.856;2024-01-30T09:04:38;23.87;;;11.90;;
5555;SDS011;2801;50.972;7.856;2024-01-30T09:07:06;21.67;;;11.50;;
5555;SDS011;2801;50.972;7.856;2024-01-30T09:09:39;22.30;;;12.10;;
5555;SDS011;2801;50.972;7.856;2024-01-30T09:12:07;21.63;;;11.63;;
5555;SDS011;2801;50.972;7.856;2024-01-30T09:14:38;25.93;;;11.97;;
5555;SDS011;2801;50.972;7.856;2024-01-30T09:17:06;19.73;;;10.87;;
5555;SDS011;2801;50.972;7.856;2024-01-30T09:19:34;20.03;;;10.63;;
5555;SDS011;2801;50.972;7.856;2024-01-30T09:22:02;19.83;;;11.57;;
5555;SDS011;2801;50.972;7.856;2024-01-30T09:24:29;21.73;;;11.50;;
5555;SDS011;2801;50.972;7.856;2024-01-30T09:26:56;20.60;;;11.80;;
5555;SDS011;2801;50.972;7.856;2024-01-30T09:29:24;24.17;;;12.53;;
5555;SDS011;2801;50.972;7.856;2024-01-30T09:31:51;21.07;;;11.53;;
5555;SDS011;2801;50.972;7.856;2024-01-30T09:34:18;22.00;;;10.87;;
5555;SDS011;2801;50.972;7.856;2024-01-30T09:36:46;24.67;;;13.20;;
5555;SDS011;2801;50.972;7.856;2024-01-30T09:39:13;24.00;;;12.20;;
5555;SDS011;2801;50.972;7.856;2024-01-30T09:41:45;20.37;;;11.60;;
5555;SDS011;2801;50.972;7.856;2024-01-30T09:44:27;24.23;;;11.93;;
5555;SDS011;2801;50.972;7.856;2024-01-30T09:46:56;23.07;;;12.70;;
5555;SDS011;2801;50.972;7.856;2024-01-30T09:49:31;22.57;;;12.47;;
5555;SDS011;2801;50.972;7.856;2024-01-30T09:52:00;23.10;;;13.60;;
5555;SDS011;2801;50.972;7.856;2024-01-30T09:54:30;29.63;;;13.43;;
5555;SDS011;2801;50.972;7.856;2024-01-30T09:57:02;25.47;;;12.50;;
5555;SDS011;2801;50.972;7.856;2024-01-30T09:59:29;26.17;;;13.10;;
5555;SDS011;2801;50.972;7.856;2024-01-30T10:01:58;25.77;;;13.60;;
5555;SDS011;2801;50.972;7.856;2024-01-30T10:04:25;26.37;;;13.50;;
5555;SDS011;2801;50.972;7.856;2024-01-30T10:06:52;25.93;;;13.77;;
5555;SDS011;2801;50.972;7.856;2024-01-30T10:09:19;25.40;;;12.53;;
5555;SDS011;2801;50.972;7.856;2024-01-30T10:11:46;16.73;;;10.37;;
5555;SDS011;2801;50.972;7.856;2024-01-30T10:14:15;24.00;;;11.47;;
5555;SDS011;2801;50.972;7.856;2024-01-30T10:16:42;24.00;;;12.53;;
5555;SDS011;2801;50.972;7.856;2024-01-30T10:19:13;23.37;;;13.43;;
5555;SDS011;2801;50.972;7.856;2024-01-30T10:21:40;24.90;;;14.70;;
5555;SDS011;2801;50.972;7.856;2024-01-30T10:24:07;24.37;;;14.17;;
5555;SDS011;2801;50.972;7.856;2024-01-30T10:26:34;25.67;;;13.93;;
5555;SDS011;2801;50.972;7.856;2024-01-30T10:29:04;25.20;;;14.00;;
5555;SDS011;2801;50.972;7.856;2024-01-30T10:31:31;21.43;;;12.50;;
5555;SDS011;2801;50.972;7.856;2024-01-30T10:33:58;26.37;;;13.07;;
5555;SDS011;2801;50.972;7.856;2024-01-30T10:36:41;19.47;;;10.77;;
5555;SDS011;2801;50.972;7.856;2024-01-30T10:39:13;25.97;;;13.70;;
5555;SDS011;2801;50.972;7.856;2024-01-30T10:41:44;22.83;;;13.30;;
5555;SDS011;2801;50.972;7.856;2024-01-30T10:44:16;24.17;;;13.20;;
5555;SDS011;2801;50.972;7.856;2024-01-30T10:46:51;27.65;;;14.70;;
5555;SDS011;2801;50.972;7.856;2024-01-30T10:49:28;21.00;;;12.13;;
5555;SDS011;2801;50.972;7.856;2024-01-30T10:51:58;16.47;;;9.33;;
5555;SDS011;2801;50.972;7.856;2024-01-30T10:54:26;14.07;;;9.40;;
5555;SDS011;2801;50.972;7.856;2024-01-30T10:56:55;15.87;;;9.77;;
5555;SDS011;2801;50.972;7.856;2024-01-30T10:59:28;15.87;;;9.17;;
5555;SDS011;2801;50.972;7.856;2024-01-30T11:01:57;11.47;;;8.07;;
5555;SDS011;2801;50.972;7.856;2024-01-30T11:04:26;14.50;;;8.33;;
5555;SDS011;2801;50.972;7.856;2024-01-30T11:06:54;12.97;;;8.17;;
5555;SDS011;2801;50.972;7.856;2024-01-30T11:09:21;13.40;;;7.53;;
5555;SDS011;2801;50.972;7.856;2024-01-30T11:11:51;14.05;;;7.82;;
5555;SDS011;2801;50.972;7.856;2024-01-30T11:14:28;15.00;;;7.35;;
5555;SDS011;2801;50.972;7.856;2024-01-30T11:16:59;12.43;;;6.77;;
5555;SDS011;2801;50.972;7.856;2024-01-30T11:19:26;15.38;;;8.00;;
5555;SDS011;2801;50.972;7.856;2024-01-30T11:21:57;13.38;;;8.07;;
5555;SDS011;2801;50.972;7.856;2024-01-30T11:24:27;11.20;;;7.47;;
5555;SDS011;2801;50.972;7.856;2024-01-30T11:26:58;10.60;;;7.47;;
5555;SDS011;2801;50.972;7.856;2024-01-30T11:29:27;15.95;;;8.00;;
5555;SDS011;2801;50.972;7.856;2024-01-30T11:31:55;11.38;;;7.65;;
5555;SDS011;2801;50.972;7.856;2024-01-30T11:34:26;12.02;;;7.63;;
5555;SDS011;2801;50.972;7.856;2024-01-30T11:36:57;12.32;;;7.68;;
5555;SDS011;2801;50.972;7.856;2024-01-30T11:39:30;12.13;;;7.72;;
5555;SDS011;2801;50.972;7.856;2024-01-30T11:41:57;13.90;;;7.45;;
5555;SDS011;2801;50.972;7.856;2024-01-30T11:44:26;11.68;;;7.25;;
5555;SDS011;2801;50.972;7.856;2024-01-30T11:46:53;13.27;;;8.20;;
5555;SDS011;2801;50.972;7.856;2024-01-30T11:49:20;11.10;;;8.23;;
5555;SDS011;2801;50.972;7.856;2024-01-30T11:51:48;10.93;;;7.30;;
5555;SDS011;2801;50.972;7.856;2024-01-30T11:54:15;12.10;;;7.82;;
5555;SDS011;2801;50.972;7.856;2024-01-30T11:56:43;12.95;;;7.28;;
5555;SDS011;2801;50.972;7.856;2024-01-30T11:59:10;13.00;;;8.90;;
5555;SDS011;2801;50.972;7.856;2024-01-30T12:01:37;14.07;;;7.85;;
5555;SDS011;2801;50.972;7.856;2024-01-30T12:04:05;13.70;;;7.80;;
5555;SDS011;2801;50.972;7.856;2024-01-30T12:06:36;12.40;;;7.95;;
5555;SDS011;2801;50.972;7.856;2024-01-30T12:09:05;10.30;;;6.82;;
5555;SDS011;2801;50.972;7.856;2024-01-30T12:11:47;11.90;;;7.75;;
5555;SDS011;2801;50.972;7.856;2024-01-30T12:14:18;13.52;;;7.07;;
5555;SDS011;2801;50.972;7.856;2024-01-30T12:16:49;13.27;;;7.85;;
5555;SDS011;2801;50.972;7.856;2024-01-30T12:19:21;15.27;;;8.00;;
5555;SDS011;2801;50.972;7.856;2024-01-30T12:21:56;12.40;;;7.57;;
5555;SDS011;2801;50.972;7.856;2024-01-30T12:24:26;12.07;;;7.85;;
5555;SDS011;2801;50.972;7.856;2024-01-30T12:26:57;11.70;;;7.43;;
5555;SDS011;2801;50.972;7.856;2024-01-30T12:29:26;12.40;;;7.78;;
5555;SDS011;2801;50.972;7.856;2024-01-30T12:32:00;11.25;;;7.43;;
5555;SDS011;2801;50.972;7.856;2024-01-30T12:34:27;11.65;;;7.97;;
5555;SDS011;2801;50.972;7.856;2024-01-30T12:36:56;15.27;;;8.35;;
5555;SDS011;2801;50.972;7.856;2024-01-30T12:39:24;12.48;;;7.50;;
5555;SDS011;2801;50.972;7.856;2024-01-30T12:41:51;14.05;;;7.40;;
5555;SDS011;2801;50.972;7.856;2024-01-30T12:44:19;12.20;;;7.15;;
5555;SDS011;2801;50.972;7.856;2024-01-30T12:46:46;12.15;;;7.47;;
5555;SDS011;2801;50.972;7.856;2024-01-30T12:49:14;11.27;;;7.32;;
5555;SDS011;2801;50.972;7.856;2024-01-30T12:51:42;11.43;;;7.28;;
5555;SDS011;2801;50.972;7.856;2024-01-30T12:54:09;11.55;;;7.45;;
5555;SDS011;2801;50.972;7.856;2024-01-30T12:56:39;14.90;;;7.40;;
5555;SDS011;2801;50.972;7.856;2024-01-30T12:59:05;11.32;;;6.65;;
5555;SDS011;2801;50.972;7.856;2024-01-30T13:01:32;13.38;;;7.40;;
5555;SDS011;2801;50.972;7.856;2024-01-30T13:03:59;16.98;;;7.35;;
5555;SDS011;2801;50.972;7.856;2024-01-30T13:06:27;12.43;;;7.05;;
5555;SDS011;2801;50.972;7.856;2024-01-30T13:08:54;11.05;;;7.43;;
5555;SDS011;2801;50.972;7.856;2024-01-30T13:11:21;11.30;;;6.40;;
5555;SDS011;2801;50.972;7.856;2024-01-30T13:13:48;12.82;;;7.57;;
5555;SDS011;2801;50.972;7.856;2024-01-30T13:16:15;11.82;;;7.00;;
5555;SDS011;2801;50.972;7.856;2024-01-30T13:18:43;16.45;;;7.25;;
5555;SDS011;2801;50.972;7.856;2024-01-30T13:21:10;13.35;;;7.50;;
5555;SDS011;2801;50.972;7.856;2024-01-30T13:23:38;13.50;;;6.90;;
5555;SDS011;2801;50.972;7.856;2024-01-30T13:26:05;10.60;;;6.88;;
5555;SDS011;2801;50.972;7.856;2024-01-30T13:28:33;13.57;;;6.65;;
5555;SDS011;2801;50.972;7.856;2024-01-30T13:31:00;10.60;;;6.47;;
5555;SDS011;2801;50.972;7.856;2024-01-30T13:33:27;11.57;;;6.90;;
5555;SDS011;2801;50.972;7.856;2024-01-30T13:35:55;10.20;;;6.55;;
5555;SDS011;2801;50.972;7.856;2024-01-30T13:38:21;10.52;;;7.03;;
5555;SDS011;2801;50.972;7.856;2024-01-30T13:40:49;13.02;;;6.75;;
5555;SDS011;2801;50.972;7.856;2024-01-30T13:43:16;12.02;;;7.00;;
5555;SDS011;2801;50.972;7.856;2024-01-30T13:45:44;10.85;;;6.07;;
5555;SDS011;2801;50.972;7.856;2024-01-30T13:48:12;11.10;;;6.78;;
5555;SDS011;2801;50.972;7.856;2024-01-30T13:50:39;12.23;;;6.88;;
5555;SDS011;2801;50.972;7.856;2024-01-30T13:53:07;8.35;;;6.10;;
5555;SDS011;2801;50.972;7.856;2024-01-30T13:55:34;11.68;;;7.00;;
5555;SDS011;2801;50.972;7.856;2024-01-30T13:58:01;9.75;;;5.93;;
5555;SDS011;2801;50.972;7.856;2024-01-30T14:00:29;11.73;;;7.00;;
5555;SDS011;2801;50.972;7.856;2024-01-30T14:02:56;12.70;;;6.70;;
5555;SDS011;2801;50.972;7.856;2024-01-30T14:05:24;12.02;;;6.25;;
5555;SDS011;2801;50.972;7.856;2024-01-30T14:07:55;12.05;;;6.75;;
5555;SDS011;2801;50.972;7.856;2024-01-30T14:10:24;11.63;;;7.15;;
5555;SDS011;2801;50.972;7.856;2024-01-30T14:12:52;10.63;;;6.53;;
5555;SDS011;2801;50.972;7.856;2024-01-30T14:15:19;11.43;;;7.00;;
5555;SDS011;2801;50.972;7.856;2024-01-30T14:17:54;10.38;;;6.68;;
5555;SDS011;2801;50.972;7.856;2024-01-30T14:20:24;11.38;;;6.95;;
5555;SDS011;2801;50.972;7.856;2024-01-30T14:22:51;10.88;;;6.80;;
5555;SDS011;2801;50.972;7.856;2024-01-30T14:25:20;10.93;;;7.15;;
5555;SDS011;2801;50.972;7.856;2024-01-30T14:27:47;15.65;;;7.70;;
5555;SDS011;2801;50.972;7.856;2024-01-30T14:30:14;14.32;;;6.65;;
5555;SDS011;2801;50.972;7.856;2024-01-30T14:32:41;9.15;;;6.82;;
5555;SDS011;2801;50.972;7.856;2024-01-30T14:35:11;11.57;;;6.68;;
5555;SDS011;2801;50.972;7.856;2024-01-30T14:37:38;11.48;;;7.22;;
5555;SDS011;2801;50.972;7.856;2024-01-30T14:40:05;11.73;;;7.00;;
5555;SDS011;2801;50.972;7.856;2024-01-30T14:42:33;9.35;;;6.38;;
5555;SDS011;2801;50.972;7.856;2024-01-30T14:45:02;12.48;;;7.28;;
5555;SDS011;2801;50.972;7.856;2024-01-30T14:47:30;10.90;;;7.05;;
5555;SDS011;2801;50.972;7.856;2024-01-30T14:49:58;13.07;;;7.22;;
5555;SDS011;2801;50.972;7.856;2024-01-30T14:52:25;12.05;;;6.80;;
5555;SDS011;2801;50.972;7.856;2024-01-30T14:54:52;13.65;;;6.97;;